Terminal Aerodrome Forecast
Issued by NWS

Home | Current Version | Previous Version | Text Only | Print | Product List | Glossary On
Versions: 1 2 3 4 5 6 7 8 9 10 11 12 13 14 15
000
FTAK31 PAJN 052300
TAFASI
TAF
PASI 052324Z 0600/0624 29014KT P6SM SCT200
     FM060800 32008KT P6SM SCT006 SCT200
     FM061000 32006KT P6SM BKN005
     FM061700 31008KT P6SM BKN010
     FM062000 28011KT P6SM FEW015=

USA.gov is the U.S. government's official web portal to all federal, state and local government web resources and services.